createdAt,value
2019-01-22T00:01:00.058Z,0
2019-01-22T00:02:00.760Z,0
2019-01-22T00:03:01.469Z,0
2019-01-22T00:04:02.172Z,0
2019-01-22T00:05:02.934Z,0
2019-01-22T00:06:03.637Z,0
2019-01-22T00:07:04.349Z,0
2019-01-22T00:08:05.049Z,0
2019-01-22T00:09:05.763Z,0
2019-01-22T00:10:06.469Z,0
2019-01-22T00:11:07.180Z,0
2019-01-22T00:12:07.893Z,0
2019-01-22T00:13:08.604Z,0
2019-01-22T00:14:09.317Z,0
2019-01-22T00:15:10.015Z,0
2019-01-22T00:16:10.715Z,0
2019-01-22T00:17:11.410Z,0
2019-01-22T00:18:12.116Z,0
2019-01-22T00:19:12.828Z,0
2019-01-22T00:20:13.549Z,0
2019-01-22T00:21:14.263Z,0
2019-01-22T00:22:14.965Z,0
2019-01-22T00:23:15.677Z,0
2019-01-22T00:24:16.389Z,0
2019-01-22T00:25:17.085Z,0
2019-01-22T00:26:17.791Z,0
2019-01-22T00:27:18.496Z,0
2019-01-22T00:28:19.213Z,0
2019-01-22T00:29:19.914Z,0
2019-01-22T00:30:20.609Z,0
2019-01-22T00:31:21.324Z,0
2019-01-22T00:32:22.077Z,0
2019-01-22T00:33:22.782Z,0
2019-01-22T00:34:23.490Z,0
2019-01-22T00:35:24.205Z,0
2019-01-22T00:36:24.922Z,0
2019-01-22T00:37:25.632Z,0
2019-01-22T00:38:26.331Z,0
2019-01-22T00:39:27.028Z,0
2019-01-22T00:40:27.727Z,0
2019-01-22T00:41:28.443Z,0
2019-01-22T00:42:29.151Z,0
2019-01-22T00:43:29.957Z,0
2019-01-22T00:44:30.671Z,0
2019-01-22T00:45:31.373Z,0
2019-01-22T00:46:32.085Z,0
2019-01-22T00:47:32.784Z,0
2019-01-22T00:48:33.492Z,0
2019-01-22T00:49:34.191Z,0
2019-01-22T00:50:34.909Z,0
2019-01-22T00:51:35.611Z,0
2019-01-22T00:52:36.323Z,0
2019-01-22T00:53:37.030Z,0
2019-01-22T00:54:37.731Z,0
2019-01-22T00:55:38.436Z,0
2019-01-22T00:56:39.148Z,0
2019-01-22T00:57:39.862Z,0
2019-01-22T00:58:40.560Z,0
2019-01-22T00:59:41.254Z,0
2019-01-22T01:00:42.014Z,0
2019-01-22T01:01:42.718Z,0
2019-01-22T01:02:43.425Z,0
2019-01-22T01:03:44.134Z,0
2019-01-22T01:04:44.836Z,0
2019-01-22T01:05:45.534Z,0
2019-01-22T01:06:46.245Z,0
2019-01-22T01:07:46.954Z,0
2019-01-22T01:08:47.659Z,0
2019-01-22T01:09:48.360Z,0
2019-01-22T01:10:49.157Z,0
2019-01-22T01:11:49.877Z,0
2019-01-22T01:12:50.605Z,0
2019-01-22T01:13:51.311Z,0
2019-01-22T01:14:52.027Z,0
2019-01-22T01:15:52.872Z,0
2019-01-22T01:16:53.575Z,0
2019-01-22T01:17:54.278Z,0
2019-01-22T01:18:54.983Z,0
2019-01-22T01:19:55.691Z,0
2019-01-22T01:20:56.449Z,0
2019-01-22T01:21:57.151Z,0
2019-01-22T01:22:57.860Z,0
2019-01-22T01:23:58.570Z,0
2019-01-22T01:24:59.292Z,0
2019-01-22T01:25:59.994Z,0
2019-01-22T01:27:00.688Z,0
2019-01-22T01:28:01.404Z,0
2019-01-22T01:29:02.218Z,0
2019-01-22T01:30:02.926Z,0
2019-01-22T01:31:03.625Z,0
2019-01-22T01:32:04.334Z,0
2019-01-22T01:33:05.038Z,0
2019-01-22T01:34:05.732Z,0
2019-01-22T01:35:06.443Z,0
2019-01-22T01:36:07.147Z,0
2019-01-22T01:37:07.855Z,0
2019-01-22T01:38:08.559Z,0
2019-01-22T01:39:09.269Z,0
2019-01-22T01:40:09.976Z,0
2019-01-22T01:41:10.684Z,0
2019-01-22T01:42:11.396Z,0
2019-01-22T01:43:12.094Z,0
2019-01-22T01:44:12.895Z,0
2019-01-22T01:45:13.609Z,0
2019-01-22T01:46:14.319Z,0
2019-01-22T01:47:15.026Z,0
2019-01-22T01:48:15.730Z,0
2019-01-22T01:49:16.444Z,0
2019-01-22T01:50:17.147Z,0
2019-01-22T01:51:17.850Z,0
2019-01-22T01:52:18.547Z,0
2019-01-22T01:53:23.825Z,0
2019-01-22T01:54:19.967Z,0
2019-01-22T01:55:20.672Z,0
2019-01-22T01:56:21.375Z,0
2019-01-22T01:57:22.084Z,0
2019-01-22T01:58:22.774Z,0
2019-01-22T01:59:23.487Z,0
2019-01-22T02:00:24.183Z,0
2019-01-22T02:01:24.898Z,0
2019-01-22T02:02:25.608Z,0
2019-01-22T02:03:26.310Z,0
2019-01-22T02:04:27.007Z,0
2019-01-22T02:05:27.766Z,0
2019-01-22T02:06:28.472Z,0
2019-01-22T02:07:29.174Z,0
2019-01-22T02:08:29.888Z,0
2019-01-22T02:09:30.594Z,0
2019-01-22T02:10:31.360Z,0
2019-01-22T02:11:32.063Z,0
2019-01-22T02:12:32.775Z,0
2019-01-22T02:13:33.479Z,0
2019-01-22T02:14:34.186Z,0
2019-01-22T02:15:34.886Z,0
2019-01-22T02:16:35.591Z,0
2019-01-22T02:17:36.307Z,0
2019-01-22T02:18:37.017Z,0
2019-01-22T02:19:37.715Z,0
2019-01-22T02:20:38.524Z,0
2019-01-22T02:21:39.229Z,0
2019-01-22T02:22:39.952Z,0
2019-01-22T02:23:40.657Z,0
2019-01-22T02:24:41.360Z,0
2019-01-22T02:25:42.057Z,0
2019-01-22T02:26:42.808Z,0
2019-01-22T02:27:43.513Z,0
2019-01-22T02:28:44.224Z,0
2019-01-22T02:29:44.929Z,0
2019-01-22T02:30:45.637Z,0
2019-01-22T02:31:46.452Z,0
2019-01-22T02:32:47.168Z,0
2019-01-22T02:33:47.883Z,0
2019-01-22T02:34:48.577Z,0
2019-01-22T02:35:49.285Z,0
2019-01-22T02:36:49.991Z,0
2019-01-22T02:37:50.749Z,0
2019-01-22T02:38:51.458Z,0
2019-01-22T02:39:52.153Z,0
2019-01-22T02:40:52.868Z,0
2019-01-22T02:41:53.564Z,0
2019-01-22T02:42:54.323Z,0
2019-01-22T02:43:54.973Z,0
2019-01-22T02:44:55.688Z,0
2019-01-22T02:45:56.395Z,0
2019-01-22T02:46:57.097Z,0
2019-01-22T02:47:57.809Z,0
2019-01-22T02:48:58.505Z,0
2019-01-22T02:49:59.208Z,0
2019-01-22T02:51:00.035Z,0
2019-01-22T02:52:00.636Z,0
2019-01-22T02:53:01.334Z,0
2019-01-22T02:54:02.085Z,0
2019-01-22T02:55:02.789Z,0
2019-01-22T02:56:03.494Z,0
2019-01-22T02:57:04.204Z,0
2019-01-22T02:58:04.927Z,0
2019-01-22T02:59:05.632Z,0
2019-01-22T03:00:06.403Z,0
2019-01-22T03:01:07.109Z,0
2019-01-22T03:02:07.816Z,0
2019-01-22T03:03:08.523Z,0
2019-01-22T03:04:09.236Z,0
2019-01-22T03:05:09.934Z,0
2019-01-22T03:06:10.637Z,0
2019-01-22T03:07:11.329Z,0
2019-01-22T03:08:12.044Z,0
2019-01-22T03:09:12.746Z,0
2019-01-22T03:10:13.465Z,0
2019-01-22T03:11:14.172Z,0
2019-01-22T03:12:14.877Z,0
2019-01-22T03:13:15.586Z,0
2019-01-22T03:14:16.295Z,0
2019-01-22T03:15:17.009Z,0
2019-01-22T03:16:17.718Z,0
2019-01-22T03:17:18.421Z,0
2019-01-22T03:18:19.129Z,0
2019-01-22T03:19:19.843Z,0
2019-01-22T03:20:20.545Z,0
2019-01-22T03:21:21.258Z,0
2019-01-22T03:22:21.974Z,0
2019-01-22T03:23:22.675Z,0
2019-01-22T03:24:23.393Z,0
2019-01-22T03:25:24.100Z,0
2019-01-22T03:26:24.812Z,0
2019-01-22T03:27:25.514Z,0
2019-01-22T03:28:26.222Z,0
2019-01-22T03:29:26.919Z,0
2019-01-22T03:30:27.619Z,0
2019-01-22T03:31:28.325Z,0
2019-01-22T03:32:29.071Z,0
2019-01-22T03:33:29.801Z,0
2019-01-22T03:34:30.502Z,0
2019-01-22T03:35:31.197Z,0
2019-01-22T03:36:31.911Z,0
2019-01-22T03:37:32.611Z,0
2019-01-22T03:38:33.314Z,0
2019-01-22T03:39:34.026Z,0
2019-01-22T03:40:34.732Z,0
2019-01-22T03:41:35.443Z,0
2019-01-22T03:42:36.142Z,0
2019-01-22T03:43:36.854Z,0
2019-01-22T03:44:37.611Z,0
2019-01-22T03:45:38.328Z,0
2019-01-22T03:46:39.027Z,0
2019-01-22T03:47:39.726Z,0
2019-01-22T03:48:40.440Z,0
2019-01-22T03:49:41.144Z,0
2019-01-22T03:50:41.861Z,0
2019-01-22T03:51:42.570Z,0
2019-01-22T03:52:43.269Z,0
2019-01-22T03:53:43.973Z,0
2019-01-22T03:54:44.682Z,0
2019-01-22T03:55:45.394Z,0
2019-01-22T03:56:46.091Z,0
2019-01-22T03:57:46.817Z,0
2019-01-22T03:58:47.522Z,0
2019-01-22T03:59:48.230Z,0
2019-01-22T04:00:49.049Z,0
2019-01-22T04:01:49.751Z,0
2019-01-22T04:02:50.466Z,0
2019-01-22T04:03:51.180Z,0
2019-01-22T04:04:51.879Z,0
2019-01-22T04:05:52.654Z,0
2019-01-22T04:06:53.363Z,0
2019-01-22T04:07:54.069Z,0
2019-01-22T04:08:54.779Z,0
2019-01-22T04:09:55.488Z,0
2019-01-22T04:10:56.245Z,0
2019-01-22T04:11:56.960Z,0
2019-01-22T04:12:57.672Z,0
2019-01-22T04:13:58.383Z,0
2019-01-22T04:14:59.082Z,0
2019-01-22T04:16:00.046Z,0
2019-01-22T04:17:00.744Z,0
2019-01-22T04:18:01.463Z,0
2019-01-22T04:19:02.162Z,0
2019-01-22T04:20:02.881Z,0
2019-01-22T04:21:03.569Z,0
2019-01-22T04:22:04.288Z,0
2019-01-22T04:23:05.076Z,0
2019-01-22T04:24:05.781Z,0
2019-01-22T04:25:06.488Z,0
2019-01-22T04:26:07.192Z,0
2019-01-22T04:27:07.897Z,0
2019-01-22T04:28:08.649Z,0
2019-01-22T04:29:09.364Z,0
2019-01-22T04:30:10.074Z,0
2019-01-22T04:31:10.771Z,0
2019-01-22T04:32:11.478Z,0
2019-01-22T04:33:12.223Z,0
2019-01-22T04:34:12.934Z,0
2019-01-22T04:35:13.645Z,0
2019-01-22T04:36:14.361Z,0
2019-01-22T04:37:15.062Z,0
2019-01-22T04:38:15.762Z,0
2019-01-22T04:39:16.470Z,0
2019-01-22T04:40:17.284Z,0
2019-01-22T04:41:17.990Z,0
2019-01-22T04:42:18.708Z,0
2019-01-22T04:43:19.415Z,0
2019-01-22T04:44:20.128Z,0
2019-01-22T04:45:20.830Z,0
2019-01-22T04:46:21.542Z,0
2019-01-22T04:47:22.243Z,0
2019-01-22T04:48:22.959Z,0
2019-01-22T04:49:23.675Z,0
2019-01-22T04:50:24.466Z,0
2019-01-22T04:51:25.167Z,0
2019-01-22T04:52:25.876Z,0
2019-01-22T04:53:26.591Z,0
2019-01-22T04:54:27.286Z,0
2019-01-22T04:55:28.090Z,0
2019-01-22T04:56:28.806Z,0
2019-01-22T04:57:29.504Z,0
2019-01-22T04:58:30.213Z,0
2019-01-22T04:59:30.926Z,0
2019-01-22T05:00:31.795Z,0
2019-01-22T05:01:32.486Z,0
2019-01-22T05:02:33.193Z,0
2019-01-22T05:03:33.897Z,0
2019-01-22T05:04:34.602Z,0
2019-01-22T05:05:35.365Z,0
2019-01-22T05:06:36.065Z,0
2019-01-22T05:07:36.776Z,0
2019-01-22T05:08:37.492Z,0
2019-01-22T05:09:38.190Z,0
2019-01-22T05:10:38.901Z,0
2019-01-22T05:11:39.604Z,0
2019-01-22T05:12:40.310Z,0
2019-01-22T05:13:41.061Z,0
2019-01-22T05:14:41.725Z,0
2019-01-22T05:15:42.437Z,0
2019-01-22T05:16:43.146Z,0
2019-01-22T05:17:43.956Z,0
2019-01-22T05:18:44.666Z,0
2019-01-22T05:19:45.376Z,0
2019-01-22T05:20:46.086Z,0
2019-01-22T05:21:46.788Z,0
2019-01-22T05:22:47.643Z,0
2019-01-22T05:23:48.342Z,0
2019-01-22T05:24:49.046Z,0
2019-01-22T05:25:49.744Z,0
2019-01-22T05:26:50.461Z,0
2019-01-22T05:27:51.165Z,0
2019-01-22T05:28:51.874Z,0
2019-01-22T05:29:52.583Z,0
2019-01-22T05:30:53.276Z,0
2019-01-22T05:31:53.981Z,0
2019-01-22T05:32:54.737Z,0
2019-01-22T05:33:55.449Z,0
2019-01-22T05:34:56.151Z,0
2019-01-22T05:35:56.856Z,0
2019-01-22T05:36:57.565Z,0
2019-01-22T05:37:58.325Z,0
2019-01-22T05:38:59.016Z,0
2019-01-22T05:39:59.729Z,0
2019-01-22T05:41:00.439Z,0
2019-01-22T05:42:01.142Z,0
2019-01-22T05:43:01.841Z,0
2019-01-22T05:44:02.573Z,0
2019-01-22T05:45:03.258Z,0
2019-01-22T05:46:03.960Z,0
2019-01-22T05:47:04.656Z,0
2019-01-22T05:48:05.359Z,0
2019-01-22T05:49:06.797Z,0
2019-01-22T05:50:06.767Z,0
2019-01-22T05:51:07.465Z,0
2019-01-22T05:52:08.166Z,0
2019-01-22T05:53:08.875Z,0
2019-01-22T05:54:09.569Z,0
2019-01-22T05:55:10.528Z,0
2019-01-22T05:56:11.233Z,0
2019-01-22T05:57:11.940Z,0
2019-01-22T05:58:12.640Z,0
2019-01-22T05:59:13.355Z,0
2019-01-22T06:00:14.214Z,0
2019-01-22T06:01:14.935Z,0
2019-01-22T06:02:15.635Z,0
2019-01-22T06:03:16.354Z,0
2019-01-22T06:04:17.053Z,0
2019-01-22T06:05:17.911Z,0
2019-01-22T06:06:18.617Z,0
2019-01-22T06:07:19.320Z,0
2019-01-22T06:08:20.014Z,0
2019-01-22T06:09:20.721Z,0
2019-01-22T06:10:21.429Z,0
2019-01-22T06:11:22.130Z,0
2019-01-22T06:12:22.844Z,0
2019-01-22T06:13:23.592Z,0
2019-01-22T06:14:24.250Z,0
2019-01-22T06:15:24.962Z,0
2019-01-22T06:16:25.672Z,0
2019-01-22T06:17:26.375Z,0
2019-01-22T06:18:27.179Z,0
2019-01-22T06:19:28.127Z,0
2019-01-22T06:20:29.086Z,0
2019-01-22T06:21:29.796Z,0
2019-01-22T06:22:30.499Z,0
2019-01-22T06:23:31.195Z,0
2019-01-22T06:24:33.289Z,0
2019-01-22T06:25:32.609Z,0
2019-01-22T06:26:33.333Z,0
2019-01-22T06:27:34.029Z,0
2019-01-22T06:28:34.836Z,0
2019-01-22T06:29:35.547Z,0
2019-01-22T06:30:36.242Z,0
2019-01-22T06:31:36.955Z,0
2019-01-22T06:32:38.220Z,0
2019-01-22T06:33:38.471Z,0
2019-01-22T06:34:39.180Z,0
2019-01-22T06:35:39.885Z,0
2019-01-22T06:36:40.580Z,0
2019-01-22T06:37:41.278Z,0
2019-01-22T06:38:41.984Z,0
2019-01-22T06:39:42.687Z,0
2019-01-22T06:40:43.405Z,0
2019-01-22T06:41:44.105Z,4
2019-01-22T06:42:44.813Z,4
2019-01-22T06:43:45.625Z,0
2019-01-22T06:44:46.327Z,4
2019-01-22T06:45:47.042Z,4
2019-01-22T06:46:47.739Z,4
2019-01-22T06:47:48.456Z,4
2019-01-22T06:48:49.171Z,4
2019-01-22T06:49:49.883Z,4
2019-01-22T06:50:50.585Z,8
2019-01-22T06:51:51.417Z,8
2019-01-22T06:52:52.107Z,12
2019-01-22T06:53:52.817Z,12
2019-01-22T06:54:53.521Z,16
2019-01-22T06:55:54.231Z,16
2019-01-22T06:56:55.052Z,20
2019-01-22T06:57:55.754Z,24
2019-01-22T06:58:56.461Z,28
2019-01-22T06:59:57.163Z,36
2019-01-22T07:00:57.876Z,40
2019-01-22T07:01:58.635Z,44
2019-01-22T07:02:59.342Z,48
2019-01-22T07:04:00.064Z,56
2019-01-22T07:05:00.763Z,68
2019-01-22T07:06:01.476Z,76
2019-01-22T07:07:02.189Z,84
2019-01-22T07:08:02.898Z,96
2019-01-22T07:09:03.628Z,112
2019-01-22T07:10:04.365Z,120
2019-01-22T07:11:05.065Z,136
2019-01-22T07:12:05.816Z,152
2019-01-22T07:13:06.525Z,168
2019-01-22T07:14:07.234Z,188
2019-01-22T07:15:07.946Z,208
2019-01-22T07:16:08.649Z,228
2019-01-22T07:17:09.398Z,256
2019-01-22T07:18:10.111Z,284
2019-01-22T07:19:10.842Z,312
2019-01-22T07:20:11.556Z,340
2019-01-22T07:21:12.256Z,372
2019-01-22T07:22:12.972Z,404
2019-01-22T07:23:13.738Z,440
2019-01-22T07:24:14.448Z,476
2019-01-22T07:25:15.157Z,508
2019-01-22T07:26:15.902Z,548
2019-01-22T07:27:16.563Z,580
2019-01-22T07:28:17.323Z,624
2019-01-22T07:29:18.283Z,664
2019-01-22T07:30:18.987Z,708
2019-01-22T07:31:19.696Z,752
2019-01-22T07:32:20.414Z,796
2019-01-22T07:33:21.118Z,844
2019-01-22T07:34:21.875Z,896
2019-01-22T07:35:22.587Z,944
2019-01-22T07:36:23.288Z,1000
2019-01-22T07:37:24.252Z,1052
2019-01-22T07:38:24.987Z,1104
2019-01-22T07:39:25.800Z,1156
2019-01-22T07:40:26.489Z,1212
2019-01-22T07:41:27.191Z,1268
2019-01-22T07:42:27.914Z,1328
2019-01-22T07:43:28.621Z,1380
2019-01-22T07:44:29.428Z,1440
2019-01-22T07:45:30.139Z,1504
2019-01-22T07:46:30.844Z,1564
2019-01-22T07:47:31.555Z,1624
2019-01-22T07:48:32.263Z,1692
2019-01-22T07:49:32.962Z,1756
2019-01-22T07:50:33.662Z,1816
2019-01-22T07:51:34.470Z,1868
2019-01-22T07:52:35.184Z,1916
2019-01-22T07:53:35.895Z,1972
2019-01-22T07:54:36.858Z,2016
2019-01-22T07:55:37.574Z,2072
2019-01-22T07:56:38.382Z,2116
2019-01-22T07:57:39.091Z,2156
2019-01-22T07:58:39.806Z,2196
2019-01-22T07:59:40.511Z,2228
2019-01-22T08:00:41.230Z,2268
2019-01-22T08:01:41.942Z,2332
2019-01-22T08:02:42.745Z,2416
2019-01-22T08:03:43.459Z,2480
2019-01-22T08:04:44.167Z,2536
2019-01-22T08:05:44.874Z,2572
2019-01-22T08:06:45.597Z,2608
2019-01-22T08:07:46.404Z,2660
2019-01-22T08:08:47.115Z,2700
2019-01-22T08:09:47.831Z,2724
2019-01-22T08:10:48.542Z,2760
2019-01-22T08:11:49.262Z,2800
2019-01-22T08:12:50.404Z,2832
2019-01-22T08:13:51.578Z,2860
2019-01-22T08:14:52.379Z,2900
2019-01-22T08:15:53.196Z,2948
2019-01-22T08:16:53.988Z,3012
2019-01-22T08:17:54.691Z,3064
2019-01-22T08:18:55.443Z,3108
2019-01-22T08:19:56.146Z,3144
2019-01-22T08:20:57.124Z,3180
2019-01-22T08:21:57.827Z,3216
2019-01-22T08:22:58.536Z,3256
2019-01-22T08:23:59.254Z,3324
2019-01-22T08:25:00.817Z,3388
2019-01-22T08:26:00.938Z,3456
2019-01-22T08:27:01.650Z,3544
2019-01-22T08:28:02.371Z,3632
2019-01-22T08:29:03.082Z,3704
2019-01-22T08:30:03.887Z,3756
2019-01-22T08:31:04.601Z,3840
2019-01-22T08:32:05.555Z,3948
2019-01-22T08:33:06.273Z,4032
2019-01-22T08:34:06.982Z,4020
2019-01-22T08:35:08.049Z,3992
2019-01-22T08:36:09.457Z,4100
2019-01-22T08:37:10.153Z,4176
2019-01-22T08:38:11.209Z,4200
2019-01-22T08:39:11.912Z,4256
2019-01-22T08:40:12.995Z,4208
2019-01-22T08:41:13.705Z,4120
2019-01-22T08:42:14.415Z,4144
2019-01-22T08:43:15.170Z,4192
2019-01-22T08:44:15.882Z,4200
2019-01-22T08:45:16.593Z,4148
2019-01-22T08:46:17.357Z,4148
2019-01-22T08:47:18.069Z,4188
2019-01-22T08:48:18.778Z,4240
2019-01-22T08:49:19.501Z,4316
2019-01-22T08:50:20.269Z,4344
2019-01-22T08:51:20.982Z,4388
2019-01-22T08:52:21.695Z,4488
2019-01-22T08:53:22.442Z,4728
2019-01-22T08:54:23.153Z,5212
2019-01-22T08:55:23.864Z,5316
2019-01-22T08:56:24.837Z,5428
2019-01-22T08:57:25.545Z,5852
2019-01-22T08:58:26.262Z,5936
2019-01-22T08:59:26.979Z,6056
2019-01-22T09:00:27.693Z,6172
2019-01-22T09:01:28.411Z,6036
2019-01-22T09:02:29.128Z,5520
2019-01-22T09:03:29.842Z,5572
2019-01-22T09:04:30.556Z,5788
2019-01-22T09:05:31.264Z,5704
2019-01-22T09:06:31.980Z,5736
2019-01-22T09:07:32.685Z,5836
2019-01-22T09:08:33.420Z,6032
2019-01-22T09:09:34.126Z,6440
2019-01-22T09:10:34.850Z,6416
2019-01-22T09:11:35.553Z,6008
2019-01-22T09:12:36.270Z,5868
2019-01-22T09:13:36.988Z,5996
2019-01-22T09:14:37.690Z,5928
2019-01-22T09:15:38.394Z,5828
2019-01-22T09:16:39.114Z,5880
2019-01-22T09:17:39.823Z,5916
2019-01-22T09:18:40.795Z,5948
2019-01-22T09:19:41.560Z,6120
2019-01-22T09:20:42.266Z,6396
2019-01-22T09:21:42.988Z,6568
2019-01-22T09:22:43.706Z,6660
2019-01-22T09:23:44.424Z,6684
2019-01-22T09:24:45.128Z,7284
2019-01-22T09:25:45.844Z,8016
2019-01-22T09:26:46.562Z,7380
2019-01-22T09:27:47.665Z,7264
2019-01-22T09:28:48.361Z,7292
2019-01-22T09:29:49.082Z,6924
2019-01-22T09:30:49.794Z,6624
2019-01-22T09:31:50.509Z,6560
2019-01-22T09:32:51.234Z,6620
2019-01-22T09:33:51.965Z,6804
2019-01-22T09:34:52.674Z,6956
2019-01-22T09:35:53.385Z,7152
2019-01-22T09:36:54.096Z,7192
2019-01-22T09:37:55.063Z,7312
2019-01-22T09:38:55.774Z,7480
2019-01-22T09:39:56.483Z,7692
2019-01-22T09:40:57.442Z,7452
2019-01-22T09:41:58.150Z,7128
2019-01-22T09:42:58.872Z,7964
2019-01-22T09:43:59.593Z,8940
2019-01-22T09:45:00.312Z,8568
2019-01-22T09:46:01.312Z,7812
2019-01-22T09:47:02.034Z,7492
2019-01-22T09:48:02.739Z,7768
2019-01-22T09:49:03.464Z,7904
2019-01-22T09:50:04.175Z,7880
2019-01-22T09:51:05.141Z,7788
2019-01-22T09:52:05.854Z,7560
2019-01-22T09:53:06.558Z,7696
2019-01-22T09:54:07.269Z,7980
2019-01-22T09:55:08.891Z,8076
2019-01-22T09:56:08.756Z,8460
2019-01-22T09:57:09.477Z,8856
2019-01-22T09:58:10.192Z,8976
2019-01-22T09:59:10.911Z,9516
2019-01-22T10:00:11.781Z,10188
2019-01-22T10:01:12.497Z,11076
2019-01-22T10:02:13.226Z,11320
2019-01-22T10:03:13.927Z,11084
2019-01-22T10:04:14.894Z,11024
2019-01-22T10:05:15.603Z,10888
2019-01-22T10:06:16.320Z,9624
2019-01-22T10:07:17.032Z,8376
2019-01-22T10:08:17.797Z,8776
2019-01-22T10:09:18.510Z,8988
2019-01-22T10:10:19.213Z,8404
2019-01-22T10:11:19.939Z,8044
2019-01-22T10:12:20.646Z,8160
2019-01-22T10:13:21.362Z,7928
2019-01-22T10:14:22.169Z,8120
2019-01-22T10:15:22.884Z,8176
2019-01-22T10:16:23.601Z,8284
2019-01-22T10:17:24.321Z,8948
2019-01-22T10:18:25.024Z,9380
2019-01-22T10:19:25.736Z,8572
2019-01-22T10:20:26.442Z,8312
2019-01-22T10:21:27.150Z,8816
2019-01-22T10:22:27.880Z,9104
2019-01-22T10:23:28.594Z,9224
2019-01-22T10:24:29.315Z,9172
2019-01-22T10:25:30.034Z,9192
2019-01-22T10:26:30.749Z,8972
2019-01-22T10:27:31.463Z,8976
2019-01-22T10:28:32.180Z,9076
2019-01-22T10:29:32.900Z,8764
2019-01-22T10:30:33.600Z,9068
2019-01-22T10:31:34.320Z,9692
2019-01-22T10:32:35.036Z,9772
2019-01-22T10:33:35.803Z,9536
2019-01-22T10:34:36.519Z,9172
2019-01-22T10:35:37.528Z,8820
2019-01-22T10:36:38.190Z,8468
2019-01-22T10:37:38.910Z,8580
2019-01-22T10:38:39.629Z,8612
2019-01-22T10:39:40.338Z,8132
2019-01-22T10:40:41.053Z,8044
2019-01-22T10:41:41.763Z,8108
2019-01-22T10:42:42.573Z,9404
2019-01-22T10:43:43.279Z,10180
2019-01-22T10:44:44.254Z,9664
2019-01-22T10:45:44.961Z,9904
2019-01-22T10:46:45.674Z,10104
2019-01-22T10:47:46.389Z,10368
2019-01-22T10:48:47.456Z,10272
2019-01-22T10:49:48.163Z,10260
2019-01-22T10:50:48.887Z,9756
2019-01-22T10:51:49.598Z,10996
2019-01-22T10:52:50.321Z,12848
2019-01-22T10:53:51.280Z,14196
2019-01-22T10:54:51.990Z,14588
2019-01-22T10:55:53.106Z,14192
2019-01-22T10:56:53.812Z,14340
2019-01-22T10:57:54.870Z,14120
2019-01-22T10:58:55.609Z,13812
2019-01-22T10:59:56.340Z,13344
2019-01-22T11:00:57.062Z,12820
2019-01-22T11:01:57.817Z,13412
2019-01-22T11:02:58.503Z,14344
2019-01-22T11:03:59.373Z,15272
2019-01-22T11:05:00.241Z,15356
2019-01-22T11:06:00.800Z,15152
2019-01-22T11:07:01.518Z,14748
2019-01-22T11:08:02.241Z,14352
2019-01-22T11:09:02.958Z,14608
2019-01-22T11:10:03.664Z,14444
2019-01-22T11:11:04.384Z,14568
2019-01-22T11:12:05.090Z,14832
2019-01-22T11:13:05.816Z,14516
2019-01-22T11:14:06.844Z,13176
2019-01-22T11:15:07.819Z,12364
2019-01-22T11:16:08.512Z,12472
2019-01-22T11:17:09.229Z,12472
2019-01-22T11:18:09.943Z,12224
2019-01-22T11:19:10.711Z,11996
2019-01-22T11:20:11.426Z,12408
2019-01-22T11:21:12.140Z,12496
2019-01-22T11:22:12.871Z,12428
2019-01-22T11:23:13.592Z,12228
2019-01-22T11:24:14.320Z,12880
2019-01-22T11:25:15.042Z,14472
2019-01-22T11:26:15.748Z,14348
2019-01-22T11:27:16.462Z,13320
2019-01-22T11:28:17.189Z,14012
2019-01-22T11:29:17.920Z,13756
2019-01-22T11:30:18.631Z,13020
2019-01-22T11:31:19.351Z,12612
2019-01-22T11:32:20.061Z,11996
2019-01-22T11:33:20.780Z,10900
2019-01-22T11:34:21.491Z,11312
2019-01-22T11:35:22.209Z,12112
2019-01-22T11:36:22.978Z,11940
2019-01-22T11:37:23.704Z,11456
2019-01-22T11:38:24.423Z,11072
2019-01-22T11:39:25.162Z,10672
2019-01-22T11:40:25.862Z,10140
2019-01-22T11:41:26.631Z,10452
2019-01-22T11:42:27.350Z,10592
2019-01-22T11:43:28.072Z,10964
2019-01-22T11:44:28.784Z,10840
2019-01-22T11:45:29.497Z,10912
2019-01-22T11:46:30.205Z,11296
2019-01-22T11:47:30.925Z,11492
2019-01-22T11:48:31.643Z,11880
2019-01-22T11:49:32.365Z,12336
2019-01-22T11:50:33.073Z,12032
2019-01-22T11:51:33.784Z,11712
2019-01-22T11:52:34.506Z,11060
2019-01-22T11:53:35.207Z,10932
2019-01-22T11:54:35.935Z,10992
2019-01-22T11:55:36.648Z,11156
2019-01-22T11:56:37.357Z,11336
2019-01-22T11:57:38.068Z,11328
2019-01-22T11:58:38.793Z,11540
2019-01-22T11:59:39.508Z,11344
2019-01-22T12:00:40.227Z,11444
2019-01-22T12:01:40.950Z,10900
2019-01-22T12:02:41.677Z,10016
2019-01-22T12:03:42.394Z,9856
2019-01-22T12:04:43.109Z,10120
2019-01-22T12:05:43.834Z,11940
2019-01-22T12:06:44.548Z,12428
2019-01-22T12:07:45.263Z,11588
2019-01-22T12:08:45.994Z,10760
2019-01-22T12:09:46.726Z,10788
2019-01-22T12:10:47.440Z,10964
2019-01-22T12:11:48.166Z,10456
2019-01-22T12:12:49.226Z,10176
2019-01-22T12:13:53.987Z,10064
2019-01-22T12:14:50.733Z,9420
2019-01-22T12:15:51.444Z,9864
2019-01-22T12:16:52.222Z,10556
2019-01-22T12:17:52.927Z,10892
2019-01-22T12:18:53.657Z,11084
2019-01-22T12:19:54.371Z,12132
2019-01-22T12:20:55.079Z,12380
2019-01-22T12:21:56.042Z,11932
2019-01-22T12:22:56.755Z,11760
2019-01-22T12:23:57.470Z,11504
2019-01-22T12:24:58.199Z,11048
2019-01-22T12:25:58.923Z,10008
2019-01-22T12:26:59.739Z,9520
2019-01-22T12:28:00.961Z,9496
2019-01-22T12:29:01.668Z,10444
2019-01-22T12:30:02.389Z,10720
2019-01-22T12:31:03.358Z,9868
2019-01-22T12:32:04.080Z,10076
2019-01-22T12:33:04.799Z,10320
2019-01-22T12:34:05.511Z,10568
2019-01-22T12:35:06.224Z,11020
2019-01-22T12:36:06.945Z,11404
2019-01-22T12:37:07.658Z,10872
2019-01-22T12:38:08.372Z,10684
2019-01-22T12:39:09.090Z,10588
2019-01-22T12:40:09.818Z,10520
2019-01-22T12:41:10.528Z,9604
2019-01-22T12:42:11.233Z,8880
2019-01-22T12:43:12.046Z,8544
2019-01-22T12:44:12.827Z,8456
2019-01-22T12:45:13.622Z,8172
2019-01-22T12:46:14.336Z,7696
2019-01-22T12:47:15.050Z,7672
2019-01-22T12:48:16.055Z,7836
2019-01-22T12:49:16.819Z,8408
2019-01-22T12:50:17.529Z,8696
2019-01-22T12:51:18.248Z,8548
2019-01-22T12:52:19.899Z,8240
2019-01-22T12:53:20.613Z,7524
2019-01-22T12:54:21.385Z,7020
2019-01-22T12:55:22.104Z,6924
2019-01-22T12:56:22.817Z,7048
2019-01-22T12:57:23.832Z,7340
2019-01-22T12:58:24.538Z,7360
2019-01-22T12:59:25.305Z,7472
2019-01-22T13:00:26.024Z,7508
2019-01-22T13:01:26.741Z,7496
2019-01-22T13:02:27.462Z,7612
2019-01-22T13:03:28.176Z,7844
2019-01-22T13:04:28.897Z,8336
2019-01-22T13:05:29.608Z,8560
2019-01-22T13:06:30.324Z,8488
2019-01-22T13:07:31.029Z,8172
2019-01-22T13:08:31.720Z,7976
2019-01-22T13:09:32.500Z,7952
2019-01-22T13:10:33.215Z,7972
2019-01-22T13:11:34.063Z,8072
2019-01-22T13:12:34.773Z,8200
2019-01-22T13:13:35.848Z,8216
2019-01-22T13:14:36.603Z,8292
2019-01-22T13:15:37.313Z,8688
2019-01-22T13:16:38.121Z,8656
2019-01-22T13:17:38.835Z,8512
2019-01-22T13:18:39.546Z,8632
2019-01-22T13:19:40.259Z,8884
2019-01-22T13:20:40.977Z,8724
2019-01-22T13:21:41.771Z,8212
2019-01-22T13:22:42.546Z,7912
2019-01-22T13:23:43.262Z,8160
2019-01-22T13:24:43.983Z,8584
2019-01-22T13:25:44.700Z,8528
2019-01-22T13:26:45.449Z,8156
2019-01-22T13:27:46.331Z,8000
2019-01-22T13:28:47.033Z,7852
2019-01-22T13:29:47.740Z,7600
2019-01-22T13:30:48.458Z,7548
2019-01-22T13:31:49.180Z,8088
2019-01-22T13:32:49.984Z,8076
2019-01-22T13:33:50.699Z,7792
2019-01-22T13:34:51.418Z,7668
2019-01-22T13:35:52.215Z,7528
2019-01-22T13:36:52.838Z,7356
2019-01-22T13:37:53.561Z,7244
2019-01-22T13:38:54.286Z,7108
2019-01-22T13:39:54.995Z,7112
2019-01-22T13:40:55.705Z,7216
2019-01-22T13:41:56.431Z,7228
2019-01-22T13:42:57.136Z,7252
2019-01-22T13:43:57.854Z,7116
2019-01-22T13:44:58.651Z,6836
2019-01-22T13:45:59.267Z,6652
2019-01-22T13:46:59.983Z,6772
2019-01-22T13:48:00.754Z,6904
2019-01-22T13:49:01.515Z,7068
2019-01-22T13:50:02.221Z,6988
2019-01-22T13:51:03.035Z,6956
2019-01-22T13:52:03.870Z,6992
2019-01-22T13:53:04.576Z,6920
2019-01-22T13:54:05.346Z,6732
2019-01-22T13:55:06.070Z,6624
2019-01-22T13:56:06.782Z,6792
2019-01-22T13:57:07.493Z,6840
2019-01-22T13:58:08.205Z,6796
2019-01-22T13:59:08.931Z,6656
2019-01-22T14:00:09.641Z,6504
2019-01-22T14:01:10.604Z,6396
2019-01-22T14:02:11.324Z,6296
2019-01-22T14:03:12.043Z,6244
2019-01-22T14:04:12.749Z,5576
2019-01-22T14:05:13.481Z,5180
2019-01-22T14:06:14.234Z,4800
2019-01-22T14:07:14.957Z,4640
2019-01-22T14:08:15.675Z,4496